Tropical Cyclones
[Index]
Main Index Home Page Stock Weather Photos Extreme Storms Discussion Storm News and Storm Chasing Reports Tropical Cyclones / Hurricanes / Typhoons Weather Data and Links Wild Fires / Bushfires Weather Observation Techniques Weather Picture Catalogue Tornado Pictures and Reports Stock Video Footage and DVDs for sale
Season 1980-1981 Tropical Cyclone MAX Track Map
Season 1980-1981 Summaries: [BoM-AU] [JTWC-AU] [JTWC-SIO] [JTWC-SPAC] [JTWC-SH]
<<- Previous TC | JTWC 1980-1981 Season | Next TC ->>

click for intensity scale information  Lat/long Grid: Show Hide

 Date Labels: Show Hide

Joint Typhoon Warning Centre Cyclone Data

Name: MAX

10 Mar 1981 18:00 UTC to 18 Mar 1981 18:00 UTC

    date/time    lat    long     hPa   cat  kts
1981-03-10 18   11.5   133.0                  15          
1981-03-11 00   11.5   132.8                  15          
1981-03-11 06   11.6   132.4                  20          
1981-03-11 12   11.8   131.8                  30          
1981-03-11 18   12.0   131.2                  35          
1981-03-12 00   12.3   130.5            1     40          
1981-03-12 06   12.6   129.7            1     45          
1981-03-12 12   12.7   128.8            1     50          
1981-03-12 18   12.7   127.8            2     55          
1981-03-13 00   12.7   126.8            2     55          
1981-03-13 06   12.7   125.8            2     55          
1981-03-13 12   12.6   125.1            2     60          
1981-03-13 18   12.4   124.5            2     65          
1981-03-14 00   12.3   123.6            2     65          
1981-03-14 06   12.3   122.6            2     70          
1981-03-14 12   12.3   121.8            2     70          
1981-03-14 18   12.3   120.9            3     75          
1981-03-15 00   12.4   119.5            3     80          
1981-03-15 06   12.6   118.1            3     85          
1981-03-15 12   12.6   117.2            3     90          
1981-03-15 18   12.7   116.3            3     90          
1981-03-16 00   13.4   115.2            3     95          
1981-03-16 06   14.2   114.2            4    100          
1981-03-16 12   14.8   114.3            3     95          
1981-03-16 18   15.2   114.4            3     90          
1981-03-17 00   15.2   113.5            3     85          
1981-03-17 06   15.2   112.4            3     80          
1981-03-17 12   15.7   111.2            2     70          
1981-03-17 18   16.2   109.7            2     60          
1981-03-18 00   16.2   107.1            2     55          
1981-03-18 06   16.3   104.3            1     45          
1981-03-18 12   16.4   102.4                  35          
1981-03-18 18   16.5   100.9                  25          
Winds are 1-min average.

Tropical cyclone tracks developed by Michael Bath using data from the Joint Typhoon Warning Centre Best Tracks and Google Maps.


[Australian Severe Weather index] [Copyright Notice] [Email Contacts] [Search This Site] [Privacy Policy]
Document: tropical_cyclone_max.htm Updated: 18 September 2016